Time;durP1;ratioP1;P1;durP2;ratioP2;P2;SDS_P1;SDS_P2;PMS_P1;PMS_P2;Temp;Humidity;BMP_temperature;BMP_pressure;BME280_temperature;BME280_humidity;BME280_pressure;Samples;Min_cycle;Max_cycle;Signal;HPM_P1;HPM_P2
2023/06/10 00:01:24;;;;;;;22.40;10.63;;;15.70;29.20;;;;;;5030311;28;46520;-66
2023/06/10 00:03:51;;;;;;;18.23;10.90;;;15.70;29.30;;;;;;5028645;28;46569;-66
2023/06/10 00:06:17;;;;;;;16.30;10.97;;;15.70;30.10;;;;;;5026079;28;46444;-66
2023/06/10 00:08:43;;;;;;;15.57;11.50;;;15.00;29.60;;;;;;5019830;28;46517;-67
2023/06/10 00:11:10;;;;;;;16.70;11.60;;;15.70;30.00;;;;;;5025477;28;46051;-66
2023/06/10 00:13:36;;;;;;;15.00;10.93;;;15.70;30.20;;;;;;5030248;28;46515;-66
2023/06/10 00:16:03;;;;;;;15.40;10.80;;;15.70;30.30;;;;;;5022519;28;46469;-67
2023/06/10 00:18:31;;;;;;;18.70;12.10;;;15.70;31.10;;;;;;5022606;28;46477;-67
2023/06/10 00:20:57;;;;;;;19.50;12.10;;;15.70;31.50;;;;;;5045963;28;46444;-68
2023/06/10 00:23:24;;;;;;;18.00;10.77;;;15.60;31.50;;;;;;5027813;28;47287;-66
2023/06/10 00:25:50;;;;;;;15.90;10.73;;;15.60;32.20;;;;;;5022884;28;46477;-68
2023/06/10 00:28:16;;;;;;;15.43;11.67;;;15.70;32.40;;;;;;5027735;28;46425;-66
2023/06/10 00:30:41;;;;;;;18.50;11.50;;;15.60;32.90;;;;;;5025122;28;46560;-67
2023/06/10 00:33:07;;;;;;;17.53;10.77;;;15.60;33.20;;;;;;5020769;28;47063;-67
2023/06/10 00:35:33;;;;;;;15.70;10.33;;;15.60;34.10;;;;;;5022753;28;46633;-67
2023/06/10 00:37:58;;;;;;;15.17;10.80;;;15.50;34.10;;;;;;5027368;28;46457;-66
2023/06/10 00:40:24;;;;;;;16.33;11.93;;;15.50;34.10;;;;;;5022337;28;46697;-68
2023/06/10 00:42:50;;;;;;;15.03;11.40;;;15.50;34.00;;;;;;5021980;28;47104;-66
2023/06/10 00:45:15;;;;;;;15.20;10.57;;;15.50;33.90;;;;;;5024550;28;46636;-66
2023/06/10 00:47:42;;;;;;;14.10;10.07;;;15.50;33.90;;;;;;5021598;28;46460;-67
2023/06/10 00:50:07;;;;;;;16.80;11.03;;;15.30;33.80;;;;;;5025510;28;46703;-67
2023/06/10 00:52:35;;;;;;;13.63;10.10;;;15.10;33.80;;;;;;5021670;28;46347;-66
2023/06/10 00:55:01;;;;;;;16.07;10.40;;;15.00;34.10;;;;;;5029875;28;46515;-66
2023/06/10 00:57:27;;;;;;;13.57;9.40;;;14.90;34.30;;;;;;5022749;28;46737;-67
2023/06/10 00:59:53;;;;;;;17.13;10.20;;;14.70;34.40;;;;;;5016808;28;46548;-67
2023/06/10 01:02:19;;;;;;;16.70;9.57;;;14.60;34.40;;;;;;5025822;28;46677;-67
2023/06/10 01:04:45;;;;;;;13.07;9.67;;;14.50;34.40;;;;;;5020194;28;46575;-69
2023/06/10 01:07:33;;;;;;;19.13;10.07;;;14.50;34.30;;;;;;5022163;28;46752;-65
2023/06/10 01:10:09;;;;;;;14.53;9.90;;;14.40;34.30;;;;;;5021010;28;46482;-67
2023/06/10 01:13:08;;;;;;;16.67;12.07;;;14.40;34.00;;;;;;5027914;28;46716;-65
2023/06/10 01:15:35;;;;;;;17.67;12.80;;;14.50;34.80;;;;;;5027277;28;46842;-66
2023/06/10 01:18:07;;;;;;;17.70;10.60;;;14.60;34.70;;;;;;5043658;28;45998;-66
2023/06/10 01:20:36;;;;;;;13.97;10.63;;;14.70;35.30;;;;;;5025827;28;46555;-67
2023/06/10 01:23:03;;;;;;;15.43;10.90;;;14.80;35.00;;;;;;5021454;28;46550;-66
2023/06/10 01:25:32;;;;;;;16.10;9.77;;;14.80;35.20;;;;;;5023180;28;46295;-66
2023/06/10 01:28:25;;;;;;;13.80;10.03;;;14.90;35.20;;;;;;5026957;28;46542;-66
2023/06/10 01:31:08;;;;;;;19.33;10.73;;;14.90;35.40;;;;;;5017762;28;46483;-66
2023/06/10 01:33:37;;;;;;;18.10;10.13;;;14.90;35.40;;;;;;5023696;28;47546;-65
2023/06/10 01:36:04;;;;;;;12.80;10.20;;;14.90;35.50;;;;;;5022915;28;46685;-67
2023/06/10 01:38:35;;;;;;;16.40;9.90;;;14.90;35.50;;;;;;5024316;28;46506;-67
2023/06/10 01:41:01;;;;;;;12.50;9.67;;;15.00;35.80;;;;;;5019174;28;46433;-67
2023/06/10 01:43:27;;;;;;;12.67;9.50;;;14.90;35.70;;;;;;5024400;28;46485;-66
2023/06/10 01:45:53;;;;;;;14.97;10.37;;;15.00;36.10;;;;;;5022448;28;46704;-66
2023/06/10 01:48:18;;;;;;;14.50;9.63;;;14.90;36.10;;;;;;5028028;28;46472;-68
2023/06/10 01:50:44;;;;;;;13.90;9.67;;;14.90;36.00;;;;;;5022190;28;46622;-67
2023/06/10 01:53:10;;;;;;;21.37;9.83;;;14.90;35.30;;;;;;5027602;28;46365;-67
2023/06/10 01:55:35;;;;;;;13.53;9.10;;;14.90;36.20;;;;;;5022163;28;46466;-66
2023/06/10 01:58:01;;;;;;;13.33;10.23;;;14.80;36.10;;;;;;5020504;28;46461;-67
2023/06/10 02:00:26;;;;;;;13.43;9.03;;;14.80;36.20;;;;;;5024223;28;46510;-67
2023/06/10 02:02:52;;;;;;;13.00;9.60;;;14.60;35.60;;;;;;5026964;28;47126;-66
2023/06/10 02:05:19;;;;;;;16.30;9.20;;;14.50;36.60;;;;;;5025922;28;46511;-66
2023/06/10 02:07:45;;;;;;;12.77;9.23;;;14.50;36.60;;;;;;5020753;28;46330;-68
2023/06/10 02:10:10;;;;;;;15.67;9.97;;;14.40;36.60;;;;;;5024438;28;46441;-67
2023/06/10 02:12:36;;;;;;;13.70;10.37;;;14.20;35.90;;;;;;5021503;28;46392;-68
2023/06/10 02:15:02;;;;;;;12.90;10.30;;;14.20;36.80;;;;;;5024533;28;46473;-68
2023/06/10 02:17:28;;;;;;;14.87;9.43;;;14.10;36.80;;;;;;5018007;28;46506;-66
2023/06/10 02:19:53;;;;;;;16.70;10.20;;;13.90;36.90;;;;;;5024750;28;46645;-66
2023/06/10 02:22:23;;;;;;;13.70;9.90;;;13.80;37.00;;;;;;5024789;28;46503;-66
2023/06/10 02:24:49;;;;;;;14.27;10.83;;;13.70;37.00;;;;;;5022593;28;46465;-67
2023/06/10 02:27:15;;;;;;;15.63;11.80;;;13.70;37.20;;;;;;5024977;28;46739;-66
2023/06/10 02:29:43;;;;;;;15.50;11.43;;;13.60;37.20;;;;;;5026359;28;46348;-66
2023/06/10 02:32:09;;;;;;;16.30;11.80;;;13.60;36.50;;;;;;5028348;28;46405;-66
2023/06/10 02:34:36;;;;;;;15.13;10.90;;;13.60;37.60;;;;;;5023816;28;47538;-66
2023/06/10 02:37:02;;;;;;;17.03;11.53;;;13.50;38.70;;;;;;5023272;28;46546;-66
2023/06/10 02:39:28;;;;;;;16.00;11.83;;;13.50;37.60;;;;;;5025800;28;46414;-67
2023/06/10 02:41:53;;;;;;;16.00;11.47;;;13.40;36.80;;;;;;5020264;28;46584;-66
2023/06/10 02:44:20;;;;;;;17.03;10.80;;;13.40;37.70;;;;;;5024752;28;46816;-66
2023/06/10 02:46:46;;;;;;;15.83;11.20;;;13.40;37.80;;;;;;5025704;28;46430;-66
2023/06/10 02:49:12;;;;;;;13.70;10.23;;;13.30;37.80;;;;;;5027595;28;46361;-66
2023/06/10 02:51:38;;;;;;;14.13;10.50;;;13.30;38.00;;;;;;5021892;28;46290;-67
2023/06/10 02:54:04;;;;;;;14.47;11.13;;;13.20;37.10;;;;;;5023446;28;46364;-66
2023/06/10 02:56:31;;;;;;;15.13;10.60;;;13.10;38.40;;;;;;5026711;28;46527;-66
2023/06/10 02:58:57;;;;;;;17.17;11.40;;;13.10;38.40;;;;;;5023598;28;46373;-66
2023/06/10 03:01:23;;;;;;;18.70;11.07;;;13.00;38.30;;;;;;5017879;28;47016;-67
2023/06/10 03:03:50;;;;;;;14.00;9.80;;;13.00;37.70;;;;;;5023729;28;46407;-66
2023/06/10 03:06:16;;;;;;;15.37;10.80;;;13.00;38.60;;;;;;5020576;28;46376;-66
2023/06/10 03:08:42;;;;;;;14.73;10.00;;;13.00;38.50;;;;;;5025340;28;46612;-67
2023/06/10 03:11:08;;;;;;;15.00;9.70;;;13.00;38.60;;;;;;5017922;28;46696;-64
2023/06/10 03:13:34;;;;;;;14.90;10.03;;;13.00;37.80;;;;;;5022831;28;46430;-67
2023/06/10 03:16:00;;;;;;;15.67;10.80;;;13.00;38.60;;;;;;5027984;28;46464;-67
2023/06/10 03:18:27;;;;;;;15.30;10.60;;;13.00;38.50;;;;;;5026407;28;46646;-65
2023/06/10 03:20:53;;;;;;;16.90;10.50;;;13.10;38.40;;;;;;5019058;28;46609;-67
2023/06/10 03:23:18;;;;;;;14.77;10.97;;;13.10;37.70;;;;;;5027675;28;46564;-66
2023/06/10 03:25:45;;;;;;;18.17;11.30;;;13.10;38.40;;;;;;5026388;28;46418;-67
2023/06/10 03:28:11;;;;;;;18.40;12.70;;;13.10;38.40;;;;;;5023812;28;46461;-67
2023/06/10 03:30:36;;;;;;;15.70;10.67;;;13.10;38.50;;;;;;5020606;28;47269;-67
2023/06/10 03:33:02;;;;;;;15.57;10.87;;;13.10;37.80;;;;;;5023290;28;46342;-66
2023/06/10 03:35:28;;;;;;;12.43;9.03;;;13.20;38.70;;;;;;5024639;28;46446;-67
2023/06/10 03:37:53;;;;;;;13.70;10.37;;;13.30;38.70;;;;;;5019475;28;46371;-64
2023/06/10 03:40:19;;;;;;;14.83;10.67;;;13.30;38.30;;;;;;5023830;28;46396;-65
2023/06/10 03:42:45;;;;;;;16.77;10.40;;;13.40;37.40;;;;;;5022904;28;46517;-66
2023/06/10 03:45:11;;;;;;;15.97;9.90;;;13.40;38.30;;;;;;5022221;28;46431;-67
2023/06/10 03:47:38;;;;;;;13.20;10.00;;;13.50;38.20;;;;;;5017884;28;46345;-67
2023/06/10 03:50:04;;;;;;;13.93;10.40;;;13.50;38.10;;;;;;5023770;28;46383;-67
2023/06/10 03:52:30;;;;;;;17.33;9.50;;;13.60;38.00;;;;;;5019547;28;46402;-67
2023/06/10 03:54:56;;;;;;;14.07;10.03;;;13.70;38.00;;;;;;5022986;28;46489;-68
2023/06/10 03:57:22;;;;;;;13.30;9.40;;;13.70;37.80;;;;;;5014041;28;46512;-67
2023/06/10 03:59:47;;;;;;;12.33;9.13;;;13.80;37.70;;;;;;5023960;28;46492;-67
2023/06/10 04:02:13;;;;;;;14.57;9.80;;;14.00;36.60;;;;;;5021265;28;46482;-66
2023/06/10 04:04:39;;;;;;;15.33;10.23;;;14.00;37.60;;;;;;5021270;28;46574;-67
2023/06/10 04:07:05;;;;;;;13.93;10.00;;;14.00;37.20;;;;;;5017441;28;45874;-67
2023/06/10 04:09:31;;;;;;;14.93;10.23;;;14.10;37.10;;;;;;5025787;28;46479;-68
2023/06/10 04:11:57;;;;;;;14.40;10.30;;;14.30;36.10;;;;;;5024123;28;46425;-66
2023/06/10 04:14:23;;;;;;;17.37;12.43;;;14.30;37.10;;;;;;5020378;28;46180;-67
2023/06/10 04:16:50;;;;;;;14.40;10.80;;;14.40;37.00;;;;;;5023374;28;46382;-66
2023/06/10 04:19:16;;;;;;;14.17;10.73;;;14.50;36.90;;;;;;5025744;28;47105;-67
2023/06/10 04:21:42;;;;;;;13.43;10.27;;;14.70;36.70;;;;;;5022186;28;46457;-67
2023/06/10 04:24:09;;;;;;;21.87;12.10;;;14.90;35.50;;;;;;5023689;28;46471;-66
2023/06/10 04:26:35;;;;;;;18.27;12.43;;;15.10;36.40;;;;;;5025624;28;46462;-67
2023/06/10 04:29:01;;;;;;;17.37;12.37;;;15.20;36.40;;;;;;5023370;28;49251;-66
2023/06/10 04:31:27;;;;;;;19.60;13.20;;;15.30;36.60;;;;;;5023746;28;46481;-67
2023/06/10 04:33:53;;;;;;;16.30;10.90;;;15.50;35.80;;;;;;5024061;28;46595;-66
2023/06/10 04:36:19;;;;;;;17.20;11.53;;;15.60;35.60;;;;;;5027515;28;46435;-66
2023/06/10 04:38:45;;;;;;;22.87;12.83;;;15.80;36.70;;;;;;5024739;28;46418;-66
2023/06/10 04:41:11;;;;;;;18.80;11.10;;;15.90;36.50;;;;;;5025022;28;46461;-67
2023/06/10 04:43:36;;;;;;;13.30;10.10;;;16.90;34.10;;;;;;5024337;28;46725;-66
2023/06/10 04:46:02;;;;;;;14.90;9.40;;;18.00;33.90;;;;;;5029164;28;46471;-66
2023/06/10 04:48:28;;;;;;;13.93;9.00;;;19.20;32.00;;;;;;5027498;28;46491;-67
2023/06/10 04:50:54;;;;;;;15.13;9.03;;;20.10;30.00;;;;;;5018684;28;46673;-66
2023/06/10 04:53:20;;;;;;;15.30;8.70;;;21.10;27.10;;;;;;5023040;28;46690;-68
2023/06/10 04:55:46;;;;;;;13.63;8.33;;;21.50;27.60;;;;;;5024486;28;46625;-67
2023/06/10 04:58:12;;;;;;;11.60;8.63;;;21.90;26.60;;;;;;5025184;28;47053;-68
2023/06/10 05:00:37;;;;;;;12.10;8.20;;;22.80;24.40;;;;;;5023465;28;46435;-68
2023/06/10 05:03:03;;;;;;;10.47;7.97;;;23.70;21.20;;;;;;5020821;28;46393;-68
2023/06/10 05:05:29;;;;;;;11.00;7.83;;;23.80;22.30;;;;;;5020305;28;46600;-66
2023/06/10 05:07:54;;;;;;;11.40;8.10;;;24.00;21.80;;;;;;5023545;28;46455;-67
2023/06/10 05:10:20;;;;;;;11.60;8.03;;;24.20;20.70;;;;;;5022094;28;46476;-66
2023/06/10 05:12:46;;;;;;;13.03;7.40;;;24.40;18.30;;;;;;5024835;28;46428;-66
2023/06/10 05:15:12;;;;;;;10.20;7.57;;;24.50;19.00;;;;;;5028247;28;46481;-67
2023/06/10 05:17:37;;;;;;;11.47;7.80;;;25.20;17.80;;;;;;5026176;28;46625;-67
2023/06/10 05:20:04;;;;;;;10.33;7.53;;;25.70;16.10;;;;;;5025040;28;46521;-68
2023/06/10 05:22:29;;;;;;;9.83;7.53;;;26.30;13.50;;;;;;5021897;28;46448;-67
2023/06/10 05:24:55;;;;;;;10.60;7.00;;;26.40;13.90;;;;;;5023126;28;46592;-68
2023/06/10 05:27:22;;;;;;;8.90;7.07;;;26.90;12.20;;;;;;5027504;28;47745;-68
2023/06/10 05:29:47;;;;;;;9.80;7.80;;;26.90;12.20;;;;;;5028163;28;46496;-67
2023/06/10 05:32:13;;;;;;;8.63;6.57;;;26.60;11.70;;;;;;5019183;28;46445;-68
2023/06/10 05:34:39;;;;;;;10.63;7.17;;;26.70;12.40;;;;;;5020550;28;46482;-67
2023/06/10 05:37:05;;;;;;;11.77;7.13;;;26.90;12.40;;;;;;5024952;28;47049;-66
2023/06/10 05:39:31;;;;;;;10.00;6.97;;;27.00;10.50;;;;;;5022899;28;46667;-65
2023/06/10 05:41:58;;;;;;;9.57;7.30;;;28.00;7.90;;;;;;5023282;28;46557;-67
2023/06/10 05:44:24;;;;;;;9.83;7.30;;;28.10;8.40;;;;;;5028384;28;46427;-66
2023/06/10 05:46:50;;;;;;;9.63;7.40;;;28.20;8.40;;;;;;5025158;28;46619;-66
2023/06/10 05:49:16;;;;;;;8.33;6.87;;;28.60;7.50;;;;;;5024360;28;46512;-66
2023/06/10 05:51:42;;;;;;;11.67;7.40;;;28.50;6.70;;;;;;5020615;28;46547;-66
2023/06/10 05:54:08;;;;;;;10.50;7.10;;;27.40;9.40;;;;;;5024692;28;46539;-66
2023/06/10 05:56:34;;;;;;;9.53;7.20;;;25.80;13.30;;;;;;5028232;28;47078;-66
2023/06/10 05:59:00;;;;;;;9.20;7.23;;;24.80;15.70;;;;;;5024411;28;46722;-67
2023/06/10 06:01:25;;;;;;;9.70;7.30;;;23.70;18.80;;;;;;5024676;28;46453;-66
2023/06/10 06:03:51;;;;;;;16.13;8.93;;;22.90;19.70;;;;;;5024481;28;46522;-66
2023/06/10 06:06:17;;;;;;;16.70;8.40;;;22.30;21.50;;;;;;5022913;28;46944;-67
2023/06/10 06:08:42;;;;;;;13.63;9.17;;;22.10;21.80;;;;;;5017249;28;46747;-66
2023/06/10 06:11:08;;;;;;;12.97;9.00;;;21.80;21.70;;;;;;5024148;28;46590;-66
2023/06/10 06:13:34;;;;;;;12.63;8.50;;;21.40;21.20;;;;;;5024833;28;46501;-66
2023/06/10 06:15:59;;;;;;;12.57;10.10;;;21.40;21.90;;;;;;5023421;28;46771;-66
2023/06/10 06:18:25;;;;;;;12.70;9.17;;;21.30;21.60;;;;;;5035372;28;46660;-65
2023/06/10 06:20:50;;;;;;;13.67;9.47;;;21.40;21.50;;;;;;5023032;28;46422;-65
2023/06/10 06:23:16;;;;;;;12.73;9.40;;;21.30;20.90;;;;;;5023408;28;46634;-64
2023/06/10 06:25:42;;;;;;;17.03;10.73;;;21.50;21.30;;;;;;5021828;28;47166;-64
2023/06/10 06:28:09;;;;;;;14.70;9.70;;;21.70;20.90;;;;;;5020938;28;46533;-65
2023/06/10 06:30:35;;;;;;;17.07;10.30;;;21.70;20.90;;;;;;5037903;28;46693;-64
2023/06/10 06:33:01;;;;;;;19.73;11.57;;;21.70;20.90;;;;;;5023414;28;46558;-65
2023/06/10 06:35:27;;;;;;;25.23;10.53;;;21.70;21.20;;;;;;5018041;28;46568;-65
2023/06/10 06:37:52;;;;;;;13.80;9.57;;;21.50;20.90;;;;;;5023727;28;46495;-65
2023/06/10 06:40:18;;;;;;;13.90;10.03;;;21.40;22.10;;;;;;5025389;28;46402;-64
2023/06/10 06:42:44;;;;;;;14.80;10.13;;;21.60;21.50;;;;;;5020308;28;46739;-65
2023/06/10 06:45:10;;;;;;;15.00;9.80;;;21.70;22.10;;;;;;5019405;28;46580;-64
2023/06/10 06:47:36;;;;;;;14.43;10.00;;;21.90;21.80;;;;;;5020298;28;46845;-64
2023/06/10 06:50:02;;;;;;;14.80;9.70;;;21.80;22.10;;;;;;5024311;28;46554;-64
2023/06/10 06:52:28;;;;;;;12.43;9.57;;;22.00;21.30;;;;;;5020194;28;46090;-64
2023/06/10 06:54:54;;;;;;;17.20;9.93;;;22.10;22.00;;;;;;5023218;28;47445;-65
2023/06/10 06:57:20;;;;;;;16.80;10.33;;;22.30;21.60;;;;;;5022200;28;46528;-65
2023/06/10 06:59:45;;;;;;;14.07;9.73;;;22.60;21.10;;;;;;5025614;28;45828;-65
2023/06/10 07:02:11;;;;;;;15.30;10.73;;;22.70;20.90;;;;;;5019700;28;46630;-65
2023/06/10 07:04:37;;;;;;;17.33;11.07;;;22.40;21.20;;;;;;5021011;28;46752;-65
2023/06/10 07:07:04;;;;;;;16.03;10.73;;;22.20;21.70;;;;;;5020880;28;46461;-65
2023/06/10 07:09:29;;;;;;;15.77;10.50;;;22.10;22.10;;;;;;5024795;28;46786;-64
2023/06/10 07:11:55;;;;;;;16.43;10.33;;;22.40;21.10;;;;;;5023982;28;46521;-64
2023/06/10 07:14:21;;;;;;;14.40;10.10;;;22.40;21.90;;;;;;5024057;28;46529;-64
2023/06/10 07:16:48;;;;;;;13.90;9.57;;;22.60;21.50;;;;;;5020542;28;46706;-65
2023/06/10 07:19:13;;;;;;;13.10;9.83;;;22.70;21.30;;;;;;5025054;28;46517;-65
2023/06/10 07:21:39;;;;;;;14.53;9.80;;;22.80;21.10;;;;;;5023304;28;45987;-65
2023/06/10 07:24:05;;;;;;;13.57;9.50;;;22.90;20.00;;;;;;5041685;28;48133;-64
2023/06/10 07:26:31;;;;;;;11.93;9.50;;;22.90;20.70;;;;;;5018479;28;46914;-65
2023/06/10 07:28:57;;;;;;;14.23;9.60;;;22.70;21.10;;;;;;5022434;28;46432;-64
2023/06/10 07:31:24;;;;;;;16.40;10.20;;;22.40;21.50;;;;;;5023951;28;46770;-65
2023/06/10 07:33:50;;;;;;;17.33;11.37;;;22.50;20.70;;;;;;5022281;28;46994;-64
2023/06/10 07:36:15;;;;;;;14.57;10.60;;;22.40;21.50;;;;;;5019381;28;46218;-65
2023/06/10 07:38:42;;;;;;;15.83;10.97;;;22.40;21.90;;;;;;5024244;28;46510;-64
2023/06/10 07:41:08;;;;;;;12.03;8.60;;;22.20;22.30;;;;;;5023290;28;46792;-65
2023/06/10 07:43:34;;;;;;;13.37;8.70;;;22.40;21.10;;;;;;5024752;28;46077;-65
2023/06/10 07:45:59;;;;;;;14.00;10.23;;;22.50;21.80;;;;;;5023458;28;46458;-65
2023/06/10 07:48:25;;;;;;;12.23;9.10;;;22.70;21.40;;;;;;5027117;28;46508;-65
2023/06/10 07:50:52;;;;;;;11.93;8.73;;;22.80;21.30;;;;;;5028461;28;46534;-64
2023/06/10 07:53:18;;;;;;;12.23;9.13;;;23.10;19.80;;;;;;5027536;28;46483;-65
2023/06/10 07:55:44;;;;;;;16.60;9.87;;;23.20;20.40;;;;;;5023922;28;46648;-64
2023/06/10 07:58:10;;;;;;;10.00;7.60;;;23.10;20.50;;;;;;5029672;28;46679;-64
2023/06/10 08:00:35;;;;;;;13.87;8.57;;;23.20;20.10;;;;;;5027188;28;46469;-64
2023/06/10 08:03:01;;;;;;;14.40;8.70;;;23.40;18.90;;;;;;5024585;28;46450;-64
2023/06/10 08:05:27;;;;;;;14.90;9.30;;;23.40;19.80;;;;;;5022102;28;46410;-64
2023/06/10 08:07:52;;;;;;;13.13;8.97;;;23.50;19.60;;;;;;5027290;28;46449;-67
2023/06/10 08:10:18;;;;;;;14.30;8.97;;;23.50;19.70;;;;;;5026119;28;45999;-64
2023/06/10 08:12:44;;;;;;;18.27;8.87;;;23.70;18.60;;;;;;5023146;28;47045;-64
2023/06/10 08:15:10;;;;;;;14.10;8.23;;;23.60;19.30;;;;;;5023270;28;46291;-66
2023/06/10 08:17:37;;;;;;;12.47;6.43;;;23.80;18.80;;;;;;5022094;28;46617;-66
2023/06/10 08:20:03;;;;;;;10.00;7.17;;;24.00;18.50;;;;;;5023911;28;46624;-65
2023/06/10 08:22:29;;;;;;;9.50;6.97;;;24.10;17.20;;;;;;5021921;28;46691;-66
2023/06/10 08:24:55;;;;;;;10.83;7.40;;;24.10;17.90;;;;;;5023826;28;47472;-67
2023/06/10 08:27:21;;;;;;;15.33;7.20;;;24.10;17.80;;;;;;5022341;28;46421;-67
2023/06/10 08:29:47;;;;;;;10.27;6.83;;;23.90;17.80;;;;;;5023955;28;46565;-67
2023/06/10 08:32:13;;;;;;;12.63;7.30;;;23.60;18.30;;;;;;5025831;28;46478;-67
2023/06/10 08:34:39;;;;;;;10.07;7.10;;;23.40;18.30;;;;;;5025207;28;46071;-67
2023/06/10 08:37:05;;;;;;;14.50;7.50;;;23.20;18.90;;;;;;5021068;28;46511;-67
2023/06/10 08:39:33;;;;;;;9.87;5.83;;;23.20;18.50;;;;;;5024940;28;46397;-67
2023/06/10 08:42:24;;;;;;;9.70;6.07;;;23.50;17.60;;;;;;5018273;28;46551;-66
2023/06/10 08:44:58;;;;;;;7.93;5.33;;;23.50;18.20;;;;;;5018531;28;46494;-66
2023/06/10 08:47:25;;;;;;;9.20;6.13;;;23.60;17.90;;;;;;5023080;28;46384;-67
2023/06/10 08:49:53;;;;;;;8.30;6.17;;;23.80;17.30;;;;;;5025189;28;46443;-67
2023/06/10 08:52:20;;;;;;;9.63;6.83;;;23.60;16.60;;;;;;5022965;28;46457;-66
2023/06/10 08:54:54;;;;;;;7.43;5.10;;;23.60;17.60;;;;;;5021067;28;46453;-67
2023/06/10 08:57:21;;;;;;;10.70;6.73;;;23.80;17.30;;;;;;5014344;28;46574;-65
2023/06/10 08:59:47;;;;;;;9.67;6.03;;;23.80;17.10;;;;;;5020758;28;47140;-63
2023/06/10 09:02:15;;;;;;;10.20;6.33;;;24.00;15.90;;;;;;5024681;28;46406;-65
2023/06/10 09:04:43;;;;;;;9.00;6.03;;;23.90;16.60;;;;;;5025198;28;46431;-66
2023/06/10 09:07:11;;;;;;;9.83;6.47;;;24.00;16.60;;;;;;5019570;28;47609;-66
2023/06/10 09:09:36;;;;;;;9.63;5.63;;;24.20;16.30;;;;;;5025553;28;46348;-66
2023/06/10 09:12:03;;;;;;;10.00;6.30;;;24.40;15.20;;;;;;5027026;28;46366;-66
2023/06/10 09:14:29;;;;;;;8.33;5.83;;;24.40;15.90;;;;;;5022927;28;46345;-66
2023/06/10 09:16:57;;;;;;;8.13;5.57;;;24.20;15.80;;;;;;5018114;28;46430;-67
2023/06/10 09:19:25;;;;;;;9.67;5.87;;;24.20;16.80;;;;;;5044537;28;47392;-66
2023/06/10 09:21:50;;;;;;;7.87;4.63;;;24.30;14.90;;;;;;5027239;28;46468;-67
2023/06/10 09:24:16;;;;;;;7.63;4.87;;;24.20;15.70;;;;;;5038899;28;46470;-67
2023/06/10 09:26:44;;;;;;;7.00;5.00;;;24.30;15.30;;;;;;5017837;28;46514;-67
2023/06/10 09:29:11;;;;;;;7.97;5.23;;;24.40;14.80;;;;;;5024802;28;46561;-66
2023/06/10 09:31:39;;;;;;;11.80;5.23;;;24.50;14.50;;;;;;5024948;28;46339;-67
2023/06/10 09:34:16;;;;;;;7.77;5.37;;;24.60;13.70;;;;;;5021033;28;46409;-67
2023/06/10 09:36:42;;;;;;;9.10;5.93;;;24.70;14.70;;;;;;5017615;28;46463;-63
2023/06/10 09:39:19;;;;;;;7.67;5.60;;;24.80;14.50;;;;;;5024581;28;46625;-66
2023/06/10 09:41:45;;;;;;;7.70;5.17;;;24.80;14.20;;;;;;5020100;28;46965;-67
2023/06/10 09:44:16;;;;;;;7.60;5.17;;;24.90;14.00;;;;;;5018218;28;46741;-65
2023/06/10 09:46:44;;;;;;;8.30;5.23;;;25.00;13.60;;;;;;5021282;28;45871;-67
2023/06/10 09:49:10;;;;;;;7.30;4.60;;;25.20;13.30;;;;;;5023992;28;46417;-67
2023/06/10 09:51:36;;;;;;;6.27;4.07;;;25.40;12.90;;;;;;5021357;28;45906;-66
2023/06/10 09:54:05;;;;;;;5.77;3.63;;;25.50;11.50;;;;;;5015609;28;46414;-65
2023/06/10 09:56:36;;;;;;;8.57;4.60;;;25.10;11.20;;;;;;5021261;28;46466;-65
2023/06/10 09:59:06;;;;;;;7.40;4.77;;;25.00;11.00;;;;;;5021613;28;46530;-66
2023/06/10 10:01:33;;;;;;;6.20;4.43;;;25.00;11.50;;;;;;5021632;28;47233;-66
2023/06/10 10:03:59;;;;;;;5.90;3.83;;;25.10;11.70;;;;;;5017766;28;46388;-67
2023/06/10 10:06:25;;;;;;;6.17;4.27;;;25.40;11.30;;;;;;5023344;28;46378;-67
2023/06/10 10:08:52;;;;;;;6.87;4.03;;;25.50;10.70;;;;;;5020290;28;46855;-66
2023/06/10 10:11:21;;;;;;;17.50;4.60;;;25.50;10.70;;;;;;5021055;28;46488;-66
2023/06/10 10:13:49;;;;;;;7.93;4.30;;;25.30;10.80;;;;;;5017305;28;47160;-67
2023/06/10 10:16:40;;;;;;;6.70;4.33;;;25.10;10.90;;;;;;5021480;28;46560;-67
2023/06/10 10:19:20;;;;;;;8.20;3.93;;;24.80;11.30;;;;;;5025612;28;46546;-64
2023/06/10 10:22:03;;;;;;;8.60;4.17;;;25.20;10.80;;;;;;5015878;28;49215;-67
2023/06/10 10:24:57;;;;;;;9.83;4.40;;;24.90;11.30;;;;;;5015103;28;46384;-66
2023/06/10 10:27:40;;;;;;;7.20;4.30;;;24.90;11.80;;;;;;5022577;28;46679;-65
2023/06/10 10:30:11;;;;;;;7.60;5.07;;;25.00;11.60;;;;;;5020210;28;47373;-65
2023/06/10 10:32:51;;;;;;;6.73;4.73;;;25.20;12.20;;;;;;5017925;28;47312;-65
2023/06/10 10:35:24;;;;;;;5.40;3.53;;;25.00;11.30;;;;;;5024480;28;46448;-68
2023/06/10 10:37:52;;;;;;;5.73;3.80;;;24.70;11.70;;;;;;5021453;28;46401;-66
2023/06/10 10:40:20;;;;;;;7.73;4.10;;;24.70;11.70;;;;;;5018819;28;46284;-65
2023/06/10 10:42:51;;;;;;;9.17;4.10;;;25.00;11.50;;;;;;5025611;28;46443;-66
2023/06/10 10:45:16;;;;;;;5.67;3.70;;;24.80;11.10;;;;;;5025606;28;46486;-66
2023/06/10 10:47:51;;;;;;;5.10;3.40;;;24.70;11.00;;;;;;5019586;28;46789;-66
2023/06/10 10:50:19;;;;;;;6.53;3.60;;;24.70;10.70;;;;;;5023366;28;46836;-65
2023/06/10 10:52:58;;;;;;;7.53;3.80;;;25.00;10.20;;;;;;5022421;28;46340;-65
2023/06/10 10:55:25;;;;;;;6.23;3.00;;;25.40;9.10;;;;;;5037888;28;46409;-65
2023/06/10 10:58:16;;;;;;;6.33;3.50;;;25.70;8.80;;;;;;5019416;28;46998;-65
2023/06/10 11:00:45;;;;;;;6.57;4.00;;;26.20;7.30;;;;;;5019833;28;46485;-65
2023/06/10 11:03:18;;;;;;;4.60;3.13;;;27.00;6.10;;;;;;5019137;28;47490;-66
2023/06/10 11:05:48;;;;;;;5.37;3.07;;;27.40;5.10;;;;;;5016460;28;46495;-66
2023/06/10 11:08:34;;;;;;;5.07;3.23;;;27.50;4.80;;;;;;5021360;28;46426;-67
2023/06/10 11:11:00;;;;;;;6.57;4.23;;;27.50;4.80;;;;;;5019275;28;46409;-67
2023/06/10 11:13:27;;;;;;;5.13;3.40;;;27.50;4.80;;;;;;5019269;28;46485;-65
2023/06/10 11:15:57;;;;;;;4.53;2.83;;;27.40;4.70;;;;;;5019440;28;46757;-65
2023/06/10 11:18:24;;;;;;;5.50;3.40;;;27.10;4.60;;;;;;5023649;28;46440;-68
2023/06/10 11:20:50;;;;;;;5.07;3.50;;;27.00;4.50;;;;;;5025812;28;46617;-70
2023/06/10 11:23:25;;;;;;;4.37;2.73;;;27.00;4.60;;;;;;5021459;28;46404;-67
2023/06/10 11:25:50;;;;;;;6.03;3.77;;;26.70;4.40;;;;;;5025424;28;47393;-66
2023/06/10 11:28:20;;;;;;;8.30;3.60;;;26.80;4.40;;;;;;5021107;28;46768;-66
2023/06/10 11:30:46;;;;;;;7.17;3.70;;;26.60;5.10;;;;;;5027211;28;46336;-70
2023/06/10 11:33:17;;;;;;;7.20;4.30;;;26.00;5.70;;;;;;5022011;28;49413;-69
2023/06/10 11:35:43;;;;;;;8.03;4.43;;;25.90;5.80;;;;;;5028664;28;46220;-68
2023/06/10 11:38:09;;;;;;;5.80;3.80;;;26.00;6.20;;;;;;5022798;28;46657;-67
2023/06/10 11:40:36;;;;;;;8.67;4.60;;;26.20;6.30;;;;;;5027929;28;46472;-68
2023/06/10 11:43:04;;;;;;;6.97;4.40;;;26.70;5.90;;;;;;5027552;28;46621;-66
2023/06/10 11:45:30;;;;;;;5.67;4.10;;;26.80;5.80;;;;;;5024706;28;46464;-66
2023/06/10 11:47:59;;;;;;;12.33;4.87;;;27.00;5.80;;;;;;5023132;28;46454;-66
2023/06/10 11:50:29;;;;;;;9.50;4.70;;;26.80;5.90;;;;;;5023811;28;46421;-67
2023/06/10 11:52:55;;;;;;;6.40;4.47;;;26.50;6.60;;;;;;5028563;28;46960;-67
2023/06/10 11:55:21;;;;;;;7.87;4.20;;;26.30;7.00;;;;;;5023100;28;46536;-67
2023/06/10 11:57:48;;;;;;;6.83;3.63;;;26.20;7.20;;;;;;5018283;28;46509;-67
2023/06/10 12:00:15;;;;;;;5.80;3.67;;;26.40;6.90;;;;;;5027029;28;47047;-68
2023/06/10 12:02:41;;;;;;;6.30;4.10;;;26.70;6.30;;;;;;5022427;28;46841;-68
2023/06/10 12:05:13;;;;;;;7.73;4.63;;;26.90;6.20;;;;;;5022779;28;46517;-68
2023/06/10 12:07:38;;;;;;;6.53;4.13;;;27.10;6.20;;;;;;5019276;28;46556;-67
2023/06/10 12:10:04;;;;;;;7.30;3.90;;;27.40;5.60;;;;;;5026825;28;46462;-68
2023/06/10 12:12:30;;;;;;;5.63;3.80;;;27.50;4.80;;;;;;5023873;28;46494;-68
2023/06/10 12:14:58;;;;;;;6.80;4.30;;;27.70;4.90;;;;;;5020083;28;45872;-68
2023/06/10 12:17:44;;;;;;;9.20;4.50;;;27.60;4.90;;;;;;5023291;28;47612;-68
2023/06/10 12:20:28;;;;;;;8.33;4.40;;;26.90;5.60;;;;;;5019819;28;46444;-67
2023/06/10 12:22:54;;;;;;;6.80;4.70;;;26.70;5.80;;;;;;5024861;28;47087;-68
2023/06/10 12:25:28;;;;;;;6.63;4.90;;;26.60;6.40;;;;;;5025132;28;45757;-67
2023/06/10 12:27:56;;;;;;;9.43;4.33;;;26.50;6.80;;;;;;5027789;28;46466;-67
2023/06/10 12:30:26;;;;;;;6.10;4.03;;;26.40;7.10;;;;;;5020704;28;46942;-68
2023/06/10 12:32:57;;;;;;;6.03;4.57;;;26.40;7.30;;;;;;5027468;28;47114;-68
2023/06/10 12:35:26;;;;;;;5.70;3.70;;;26.50;7.00;;;;;;5024027;28;46541;-67
2023/06/10 12:38:01;;;;;;;7.13;4.00;;;26.70;6.80;;;;;;5019332;28;46426;-68
2023/06/10 12:40:32;;;;;;;6.90;4.70;;;26.70;6.20;;;;;;5028390;28;46562;-67